createdAt,value
2019-05-02T00:01:26.735Z,76.61
2019-05-02T00:04:00.209Z,75.90
2019-05-02T00:06:38.050Z,76.59
2019-05-02T00:09:11.153Z,77.14
2019-05-02T00:11:57.671Z,76.73
2019-05-02T00:14:20.237Z,77.92
2019-05-02T00:16:53.660Z,78.48
2019-05-02T00:19:27.122Z,77.47
2019-05-02T00:22:00.682Z,77.32
2019-05-02T00:24:39.261Z,77.44
2019-05-02T00:27:09.424Z,78.01
2019-05-02T00:29:42.829Z,77.18
2019-05-02T00:32:18.307Z,76.55
2019-05-02T00:34:51.433Z,77.26
2019-05-02T00:37:26.612Z,77.60
2019-05-02T00:39:59.977Z,79.28
2019-05-02T00:42:33.405Z,79.28
2019-05-02T00:45:07.257Z,79.21
2019-05-02T00:47:47.497Z,78.12
2019-05-02T00:50:18.101Z,78.04
2019-05-02T00:52:51.522Z,78.68
2019-05-02T00:55:28.764Z,78.44
2019-05-02T00:58:00.076Z,78.15
2019-05-02T01:00:35.127Z,78.54
2019-05-02T01:03:11.073Z,79.45
2019-05-02T01:05:43.753Z,79.95
2019-05-02T01:08:17.187Z,80.18
2019-05-02T01:10:52.199Z,79.69
2019-05-02T01:13:25.741Z,80.39
2019-05-02T01:15:59.146Z,80.66
2019-05-02T01:18:32.559Z,80.75
2019-05-02T01:21:05.969Z,81.02
2019-05-02T01:23:39.452Z,80.75
2019-05-02T01:26:12.918Z,80.97
2019-05-02T01:28:54.223Z,81.43
2019-05-02T01:31:49.882Z,82.18
2019-05-02T01:34:26.012Z,82.03
2019-05-02T01:37:07.028Z,82.14
2019-05-02T01:39:42.694Z,82.03
2019-05-02T01:42:15.629Z,82.28
2019-05-02T01:44:49.041Z,82.91
2019-05-02T01:47:22.439Z,82.72
2019-05-02T01:49:57.188Z,83.38
2019-05-02T01:52:30.998Z,83.14
2019-05-02T01:55:06.342Z,83.13
2019-05-02T01:57:40.008Z,83.34
2019-05-02T02:00:15.319Z,83.30
2019-05-02T02:02:48.712Z,84.45
2019-05-02T02:05:22.120Z,85.22
2019-05-02T02:07:57.431Z,85.15
2019-05-02T02:10:30.660Z,85.14
2019-05-02T02:13:05.289Z,84.55
2019-05-02T02:15:38.980Z,84.27
2019-05-02T02:18:13.767Z,85.49
2019-05-02T02:20:49.329Z,86.09
2019-05-02T02:23:25.241Z,85.62
2019-05-02T02:26:06.949Z,85.74
2019-05-02T02:28:38.275Z,85.76
2019-05-02T02:31:11.704Z,86.68
2019-05-02T02:33:47.926Z,86.09
2019-05-02T02:36:30.365Z,86.36
2019-05-02T02:38:55.491Z,87.30
2019-05-02T02:41:28.913Z,86.98
2019-05-02T02:44:07.634Z,86.80
2019-05-02T02:46:45.659Z,87.22
2019-05-02T02:49:21.430Z,87.65
2019-05-02T02:51:57.944Z,87.38
2019-05-02T02:54:29.316Z,86.93
2019-05-02T02:57:02.747Z,86.82
2019-05-02T02:59:36.140Z,86.62
2019-05-02T03:02:11.856Z,86.44
2019-05-02T03:04:46.426Z,87.10
2019-05-02T03:07:25.941Z,87.53
2019-05-02T03:09:59.646Z,87.22
2019-05-02T03:12:36.302Z,87.13
2019-05-02T03:15:09.144Z,86.86
2019-05-02T03:17:42.630Z,86.58
2019-05-02T03:20:16.019Z,87.09
2019-05-02T03:22:49.435Z,87.36
2019-05-02T03:25:25.014Z,86.82
2019-05-02T03:27:58.416Z,86.66
2019-05-02T03:30:37.430Z,86.43
2019-05-02T03:33:11.163Z,86.06
2019-05-02T03:35:48.395Z,86.34
2019-05-02T03:38:17.321Z,85.85
2019-05-02T03:40:50.855Z,85.49
2019-05-02T03:43:25.773Z,84.86
2019-05-02T03:45:59.508Z,84.94
2019-05-02T03:48:32.978Z,84.80
2019-05-02T03:51:19.750Z,84.71
2019-05-02T03:53:41.573Z,84.19
2019-05-02T03:56:14.977Z,83.75
2019-05-02T03:58:55.968Z,84.17
2019-05-02T04:01:23.867Z,84.48
2019-05-02T04:03:57.333Z,84.77
2019-05-02T04:06:31.598Z,85.39
2019-05-02T04:09:07.461Z,85.86
2019-05-02T04:11:41.801Z,86.20
2019-05-02T04:14:23.292Z,87.24
2019-05-02T04:16:55.315Z,87.50
2019-05-02T04:19:28.750Z,88.19
2019-05-02T04:22:08.974Z,86.92
2019-05-02T04:24:37.171Z,86.91
2019-05-02T04:27:11.812Z,86.48
2019-05-02T04:29:45.222Z,86.71
2019-05-02T04:32:18.621Z,86.52
2019-05-02T04:34:55.095Z,86.11
2019-05-02T04:37:27.162Z,85.43
2019-05-02T04:40:03.169Z,85.22
2019-05-02T04:42:35.712Z,85.67
2019-05-02T04:45:21.840Z,85.07
2019-05-02T04:47:57.499Z,85.22
2019-05-02T04:50:25.012Z,84.25
2019-05-02T04:52:54.508Z,84.01
2019-05-02T04:55:32.364Z,83.94
2019-05-02T04:58:03.059Z,83.42
2019-05-02T05:00:38.989Z,81.68
2019-05-02T05:03:15.748Z,80.41
2019-05-02T05:05:48.187Z,78.21
2019-05-02T05:08:26.634Z,77.63
2019-05-02T05:10:57.371Z,79.11
2019-05-02T05:13:30.862Z,80.12
2019-05-02T05:16:08.612Z,80.64
2019-05-02T05:18:39.451Z,80.62
2019-05-02T05:21:12.863Z,79.62
2019-05-02T05:23:51.708Z,79.81
2019-05-02T05:26:23.606Z,79.68
2019-05-02T05:28:58.393Z,77.61
2019-05-02T05:31:31.886Z,76.62
2019-05-02T05:34:05.294Z,76.20
2019-05-02T05:36:38.725Z,76.45
2019-05-02T05:39:12.122Z,75.77
2019-05-02T05:41:50.567Z,77.46
2019-05-02T05:44:23.334Z,77.95
2019-05-02T05:46:57.991Z,77.37
2019-05-02T05:49:30.976Z,76.20
2019-05-02T05:52:04.482Z,75.10
2019-05-02T05:54:41.862Z,76.24
2019-05-02T05:57:17.374Z,76.47
2019-05-02T05:59:48.563Z,76.06
2019-05-02T06:02:21.937Z,76.29
2019-05-02T06:05:01.998Z,74.76
2019-05-02T06:07:33.574Z,71.43
2019-05-02T06:10:07.994Z,69.94
2019-05-02T06:12:41.600Z,68.99
2019-05-02T06:15:15.138Z,66.81
2019-05-02T06:17:48.548Z,67.72
2019-05-02T06:20:25.767Z,67.64
2019-05-02T06:22:59.999Z,68.69
2019-05-02T06:25:36.409Z,70.48
2019-05-02T06:28:07.346Z,72.16
2019-05-02T06:30:40.764Z,74.11
2019-05-02T06:33:14.170Z,73.01
2019-05-02T06:35:47.665Z,73.61
2019-05-02T06:38:22.921Z,73.87
2019-05-02T06:40:56.586Z,72.56
2019-05-02T06:43:30.009Z,70.63
2019-05-02T06:46:15.579Z,68.96
2019-05-02T06:48:38.615Z,65.24
2019-05-02T06:51:19.638Z,64.86
2019-05-02T06:53:48.905Z,68.04
2019-05-02T06:56:22.452Z,67.91
2019-05-02T06:58:55.889Z,66.56
2019-05-02T07:01:29.319Z,65.66
2019-05-02T07:04:04.383Z,67.65
2019-05-02T07:06:56.028Z,69.80
2019-05-02T07:09:13.519Z,68.62
2019-05-02T07:11:57.048Z,68.48
2019-05-02T07:14:23.637Z,70.62
2019-05-02T07:16:59.019Z,72.57
2019-05-02T07:19:49.342Z,68.28
2019-05-02T07:22:23.183Z,66.49
2019-05-02T07:24:56.594Z,63.93
2019-05-02T07:27:33.739Z,64.81
2019-05-02T07:30:08.593Z,64.78
2019-05-02T07:32:43.376Z,64.45
2019-05-02T07:35:19.248Z,67.03
2019-05-02T07:37:52.144Z,65.86
2019-05-02T07:40:25.620Z,67.03
2019-05-02T07:42:59.032Z,63.82
2019-05-02T07:45:32.535Z,59.06
2019-05-02T07:48:05.961Z,59.76
2019-05-02T07:50:41.277Z,57.67
2019-05-02T07:53:14.520Z,59.97
2019-05-02T07:55:49.224Z,60.79
2019-05-02T07:58:22.738Z,63.89
2019-05-02T08:00:56.173Z,63.34
2019-05-02T08:03:33.582Z,61.66
2019-05-02T08:06:04.923Z,63.96
2019-05-02T08:08:38.336Z,65.93
2019-05-02T08:11:11.870Z,67.22
2019-05-02T08:13:49.618Z,66.72
2019-05-02T08:16:22.380Z,63.42
2019-05-02T08:18:55.659Z,61.87
2019-05-02T08:21:32.465Z,63.01
2019-05-02T08:24:04.521Z,61.62
2019-05-02T08:26:58.277Z,62.06
2019-05-02T08:29:31.018Z,60.19
2019-05-02T08:32:04.602Z,61.01
2019-05-02T08:34:38.010Z,60.42
2019-05-02T08:37:11.440Z,59.86
2019-05-02T08:39:44.841Z,60.53
2019-05-02T08:42:18.280Z,59.60
2019-05-02T08:44:56.242Z,61.53
2019-05-02T08:47:28.457Z,59.62
2019-05-02T08:50:02.090Z,61.01
2019-05-02T08:52:36.747Z,60.49
2019-05-02T08:55:11.174Z,58.37
2019-05-02T08:57:44.588Z,58.27
2019-05-02T09:00:18.255Z,59.59
2019-05-02T09:02:51.770Z,59.14
2019-05-02T09:05:25.164Z,56.74
2019-05-02T09:07:58.606Z,56.93
2019-05-02T09:10:32.085Z,54.60
2019-05-02T09:13:05.672Z,55.81
2019-05-02T09:15:40.345Z,55.11
2019-05-02T09:18:14.242Z,56.93
2019-05-02T09:20:52.599Z,55.74
2019-05-02T09:23:23.032Z,54.81
2019-05-02T09:25:58.056Z,55.95
2019-05-02T09:28:32.113Z,55.05
2019-05-02T09:31:06.762Z,53.89
2019-05-02T09:33:42.477Z,57.45
2019-05-02T09:36:15.742Z,55.89
2019-05-02T09:38:55.968Z,55.58
2019-05-02T09:41:31.773Z,53.91
2019-05-02T09:44:02.893Z,52.99
2019-05-02T09:46:36.412Z,55.17
2019-05-02T09:49:14.392Z,53.31
2019-05-02T09:51:45.651Z,54.45
2019-05-02T09:54:22.837Z,54.14
2019-05-02T09:56:55.631Z,54.63
2019-05-02T09:59:33.073Z,53.42
2019-05-02T10:02:06.759Z,55.12
2019-05-02T10:04:43.819Z,55.12
2019-05-02T10:07:15.635Z,54.65
2019-05-02T10:09:49.236Z,54.93
2019-05-02T10:12:22.973Z,54.76
2019-05-02T10:14:56.549Z,53.65
2019-05-02T10:17:32.065Z,52.59
2019-05-02T10:20:07.608Z,54.73
2019-05-02T10:22:41.855Z,52.83
2019-05-02T10:25:16.317Z,53.53
2019-05-02T10:27:49.805Z,52.83
2019-05-02T10:30:25.007Z,52.36
2019-05-02T10:32:58.526Z,53.96
2019-05-02T10:35:45.667Z,54.78
2019-05-02T10:38:19.527Z,53.17
2019-05-02T10:40:59.319Z,53.03
2019-05-02T10:43:28.478Z,53.35
2019-05-02T10:46:06.272Z,53.14
2019-05-02T10:48:42.133Z,53.33
2019-05-02T10:51:26.461Z,51.76
2019-05-02T10:53:59.877Z,52.77
2019-05-02T10:56:33.304Z,53.42
2019-05-02T10:59:06.743Z,52.33
2019-05-02T11:01:41.903Z,51.80
2019-05-02T11:04:16.293Z,54.83
2019-05-02T11:06:51.697Z,53.00
2019-05-02T11:09:26.370Z,51.67
2019-05-02T11:12:02.670Z,52.65
2019-05-02T11:14:37.784Z,53.78
2019-05-02T11:17:17.282Z,53.05
2019-05-02T11:19:49.617Z,50.89
2019-05-02T11:22:23.039Z,51.96
2019-05-02T11:24:56.443Z,50.46
2019-05-02T11:27:29.868Z,51.39
2019-05-02T11:30:05.091Z,50.88
2019-05-02T11:32:38.612Z,49.48
2019-05-02T11:35:12.315Z,52.09
2019-05-02T11:37:45.764Z,51.04
2019-05-02T11:40:19.241Z,51.01
2019-05-02T11:42:52.680Z,49.52
2019-05-02T11:45:26.081Z,51.51
2019-05-02T11:48:01.672Z,50.28
2019-05-02T11:50:35.551Z,49.84
2019-05-02T11:53:22.313Z,48.46
2019-05-02T11:55:44.107Z,48.25
2019-05-02T11:58:17.525Z,48.38
2019-05-02T12:00:52.333Z,47.76
2019-05-02T12:03:28.255Z,46.77
2019-05-02T12:06:06.695Z,46.55
2019-05-02T12:08:39.333Z,47.63
2019-05-02T12:11:17.428Z,47.06
2019-05-02T12:13:52.824Z,47.32
2019-05-02T12:16:24.161Z,46.94
2019-05-02T12:19:08.462Z,46.43
2019-05-02T12:21:32.892Z,48.24
2019-05-02T12:24:06.355Z,48.17
2019-05-02T12:26:41.793Z,48.56
2019-05-02T12:29:14.952Z,47.52
2019-05-02T12:31:52.674Z,46.45
2019-05-02T12:34:23.679Z,46.14
2019-05-02T12:36:57.192Z,48.45
2019-05-02T12:39:31.693Z,46.05
2019-05-02T12:42:05.798Z,47.26
2019-05-02T12:44:39.499Z,45.65
2019-05-02T12:47:12.969Z,45.38
2019-05-02T12:49:46.410Z,44.63
2019-05-02T12:52:19.832Z,45.01
2019-05-02T12:54:53.334Z,42.87
2019-05-02T12:57:26.755Z,43.45
2019-05-02T13:00:02.035Z,43.95
2019-05-02T13:02:36.970Z,41.83
2019-05-02T13:05:10.679Z,43.19
2019-05-02T13:07:50.364Z,42.12
2019-05-02T13:10:21.959Z,42.32
2019-05-02T13:12:55.420Z,42.21
2019-05-02T13:15:29.113Z,42.07
2019-05-02T13:18:03.083Z,41.41
2019-05-02T13:20:38.428Z,41.25
2019-05-02T13:23:15.377Z,40.61
2019-05-02T13:25:48.940Z,39.79
2019-05-02T13:28:25.664Z,39.51
2019-05-02T13:30:59.280Z,39.75
2019-05-02T13:33:49.129Z,39.23
2019-05-02T13:36:44.327Z,38.32
2019-05-02T13:39:39.454Z,40.13
2019-05-02T13:42:13.075Z,41.73
2019-05-02T13:45:03.475Z,40.34
2019-05-02T13:47:36.906Z,40.34
2019-05-02T13:50:12.780Z,40.19
2019-05-02T13:52:55.037Z,40.59
2019-05-02T13:55:25.480Z,40.58
2019-05-02T13:57:58.875Z,40.29
2019-05-02T14:00:34.107Z,39.50
2019-05-02T14:03:07.780Z,38.96
2019-05-02T14:05:49.160Z,39.87
2019-05-02T14:08:19.739Z,37.83
2019-05-02T14:11:01.902Z,39.71
2019-05-02T14:13:35.638Z,40.45
2019-05-02T14:16:09.221Z,39.14
2019-05-02T14:18:42.623Z,40.12
2019-05-02T14:21:16.124Z,39.91
2019-05-02T14:23:51.678Z,39.25
2019-05-02T14:26:30.193Z,38.28
2019-05-02T14:28:59.833Z,38.46
2019-05-02T14:31:33.272Z,37.60
2019-05-02T14:34:14.023Z,38.04
2019-05-02T14:36:47.445Z,37.67
2019-05-02T14:39:22.656Z,38.79
2019-05-02T14:41:56.114Z,37.92
2019-05-02T14:44:59.805Z,38.62
2019-05-02T14:47:04.912Z,38.27
2019-05-02T14:49:38.381Z,37.87
2019-05-02T14:52:12.643Z,39.60
2019-05-02T14:54:48.074Z,36.93
2019-05-02T14:57:22.940Z,37.88
2019-05-02T14:59:59.549Z,39.09
2019-05-02T15:02:39.360Z,39.66
2019-05-02T15:05:12.752Z,39.06
2019-05-02T15:07:46.374Z,38.08
2019-05-02T15:10:19.930Z,38.31
2019-05-02T15:12:59.772Z,38.92
2019-05-02T15:15:33.607Z,39.60
2019-05-02T15:18:07.900Z,37.50
2019-05-02T15:20:39.508Z,38.75
2019-05-02T15:23:19.346Z,39.17
2019-05-02T15:25:52.511Z,39.37
2019-05-02T15:28:24.402Z,38.00
2019-05-02T15:31:05.186Z,38.10
2019-05-02T15:33:42.058Z,38.45
2019-05-02T15:36:15.542Z,37.98
2019-05-02T15:38:48.986Z,37.59
2019-05-02T15:41:23.148Z,38.56
2019-05-02T15:43:56.593Z,38.92
2019-05-02T15:46:31.765Z,38.67
2019-05-02T15:49:05.893Z,39.69
2019-05-02T15:51:45.039Z,39.15
2019-05-02T15:54:18.837Z,39.11
2019-05-02T15:57:00.410Z,39.09
2019-05-02T15:59:37.646Z,39.07
2019-05-02T16:02:13.006Z,39.60
2019-05-02T16:04:46.539Z,39.58
2019-05-02T16:07:19.960Z,39.19
2019-05-02T16:09:57.274Z,38.98
2019-05-02T16:12:31.941Z,38.58
2019-05-02T16:15:13.089Z,38.54
2019-05-02T16:17:42.208Z,38.77
2019-05-02T16:20:18.402Z,38.58
2019-05-02T16:22:52.409Z,38.44
2019-05-02T16:25:26.057Z,38.59
2019-05-02T16:28:02.672Z,38.88
2019-05-02T16:30:37.005Z,38.52
2019-05-02T16:33:17.411Z,38.54
2019-05-02T16:35:46.252Z,38.49
2019-05-02T16:38:22.124Z,39.68
2019-05-02T16:40:55.609Z,39.42
2019-05-02T16:43:32.334Z,39.09
2019-05-02T16:46:06.563Z,39.28
2019-05-02T16:48:42.596Z,38.67
2019-05-02T16:51:30.265Z,39.46
2019-05-02T16:53:51.353Z,38.98
2019-05-02T16:56:24.792Z,39.54
2019-05-02T16:58:58.191Z,39.47
2019-05-02T17:01:38.453Z,39.72
2019-05-02T17:04:12.921Z,40.27
2019-05-02T17:06:46.625Z,40.03
2019-05-02T17:09:22.353Z,40.45
2019-05-02T17:11:56.826Z,39.99
2019-05-02T17:14:31.742Z,40.05
2019-05-02T17:17:05.407Z,40.47
2019-05-02T17:19:40.354Z,40.75
2019-05-02T17:22:16.759Z,40.91
2019-05-02T17:24:48.918Z,40.84
2019-05-02T17:27:24.591Z,41.04
2019-05-02T17:29:59.217Z,40.94
2019-05-02T17:32:34.155Z,40.73
2019-05-02T17:35:09.877Z,40.32
2019-05-02T17:37:48.779Z,40.75
2019-05-02T17:40:24.433Z,41.12
2019-05-02T17:42:57.130Z,41.31
2019-05-02T17:45:33.513Z,41.53
2019-05-02T17:48:10.416Z,41.54
2019-05-02T17:50:49.346Z,42.06
2019-05-02T17:53:23.882Z,43.11
2019-05-02T17:55:57.356Z,43.08
2019-05-02T17:58:31.780Z,46.97
2019-05-02T18:01:07.431Z,50.81
2019-05-02T18:03:42.560Z,56.24
2019-05-02T18:06:17.350Z,59.98
2019-05-02T18:08:55.169Z,62.83
2019-05-02T18:11:29.600Z,65.05
2019-05-02T18:14:03.315Z,66.62
2019-05-02T18:16:39.291Z,68.52
2019-05-02T18:19:16.065Z,69.12
2019-05-02T18:21:47.525Z,69.00
2019-05-02T18:24:22.298Z,68.99
2019-05-02T18:26:55.886Z,68.80
2019-05-02T18:29:29.380Z,69.56
2019-05-02T18:32:05.076Z,73.68
2019-05-02T18:34:38.560Z,78.23
2019-05-02T18:37:11.962Z,78.03
2019-05-02T18:39:50.855Z,78.88
2019-05-02T18:42:21.940Z,80.21
2019-05-02T18:44:55.917Z,79.57
2019-05-02T18:47:29.368Z,78.98
2019-05-02T18:50:06.093Z,78.93
2019-05-02T18:52:43.094Z,77.68
2019-05-02T18:55:17.211Z,79.34
2019-05-02T18:57:48.625Z,77.34
2019-05-02T19:00:22.912Z,75.80
2019-05-02T19:02:56.676Z,74.90
2019-05-02T19:05:30.232Z,74.69
2019-05-02T19:08:03.691Z,74.76
2019-05-02T19:10:41.671Z,74.42
2019-05-02T19:13:12.838Z,73.31
2019-05-02T19:15:48.916Z,75.16
2019-05-02T19:18:21.562Z,75.31
2019-05-02T19:21:02.528Z,72.28
2019-05-02T19:23:36.544Z,72.97
2019-05-02T19:26:13.106Z,72.90
2019-05-02T19:28:52.158Z,73.49
2019-05-02T19:31:26.740Z,75.39
2019-05-02T19:34:02.290Z,74.14
2019-05-02T19:36:35.386Z,76.13
2019-05-02T19:39:09.950Z,74.53
2019-05-02T19:41:45.394Z,74.76
2019-05-02T19:44:21.538Z,76.15
2019-05-02T19:46:53.891Z,76.30
2019-05-02T19:49:27.299Z,77.22
2019-05-02T19:52:02.296Z,79.23
2019-05-02T19:54:39.229Z,79.47
2019-05-02T19:57:11.876Z,81.32
2019-05-02T19:59:45.445Z,81.37
2019-05-02T20:02:19.128Z,83.17
2019-05-02T20:04:52.531Z,84.89
2019-05-02T20:07:25.959Z,86.46
2019-05-02T20:09:59.455Z,87.27
2019-05-02T20:12:32.895Z,88.62
2019-05-02T20:15:09.339Z,89.30
2019-05-02T20:17:42.778Z,89.89
2019-05-02T20:20:40.671Z,91.65
2019-05-02T20:23:18.385Z,92.43
2019-05-02T20:25:52.234Z,91.80
2019-05-02T20:28:25.875Z,92.36
2019-05-02T20:30:59.357Z,91.61
2019-05-02T20:33:32.891Z,92.63
2019-05-02T20:36:06.355Z,92.08
2019-05-02T20:38:41.626Z,93.48
2019-05-02T20:41:15.026Z,92.88
2019-05-02T20:43:48.460Z,93.25
2019-05-02T20:46:22.041Z,93.61
2019-05-02T20:48:55.531Z,93.66
2019-05-02T20:51:29.094Z,94.51
2019-05-02T20:54:02.545Z,94.17
2019-05-02T20:56:36.031Z,94.21
2019-05-02T20:59:09.452Z,94.14
2019-05-02T21:01:43.107Z,93.99
2019-05-02T21:04:16.767Z,94.48
2019-05-02T21:06:54.546Z,94.18
2019-05-02T21:09:38.681Z,93.56
2019-05-02T21:12:12.702Z,94.23
2019-05-02T21:14:46.306Z,94.32
2019-05-02T21:17:19.716Z,94.44
2019-05-02T21:19:53.159Z,93.91
2019-05-02T21:22:29.181Z,93.90
2019-05-02T21:25:02.629Z,94.06
2019-05-02T21:27:36.094Z,93.35
2019-05-02T21:30:13.251Z,93.79
2019-05-02T21:32:46.671Z,93.87
2019-05-02T21:35:20.105Z,94.30
2019-05-02T21:37:53.498Z,94.13
2019-05-02T21:40:27.112Z,95.23
2019-05-02T21:43:02.370Z,95.23
2019-05-02T21:45:35.674Z,95.10
2019-05-02T21:48:09.066Z,95.08
2019-05-02T21:50:53.303Z,94.73
2019-05-02T21:53:33.872Z,95.41
2019-05-02T21:56:25.370Z,96.04
2019-05-02T21:59:09.063Z,95.58
2019-05-02T22:01:53.535Z,95.53
2019-05-02T22:04:26.964Z,94.26
2019-05-02T22:07:00.388Z,94.92
2019-05-02T22:09:33.815Z,92.69
2019-05-02T22:12:07.382Z,88.73
2019-05-02T22:14:42.161Z,84.34
2019-05-02T22:17:17.119Z,86.10
2019-05-02T22:19:52.418Z,86.16
2019-05-02T22:22:25.940Z,83.58
2019-05-02T22:24:59.356Z,81.52
2019-05-02T22:27:32.761Z,82.69
2019-05-02T22:30:07.639Z,83.92
2019-05-02T22:32:42.717Z,83.03
2019-05-02T22:35:16.281Z,83.64
2019-05-02T22:37:51.354Z,84.13
2019-05-02T22:40:24.751Z,82.68
2019-05-02T22:42:58.204Z,86.51
2019-05-02T22:45:32.228Z,84.92
2019-05-02T22:48:05.929Z,85.95
2019-05-02T22:50:39.325Z,84.39
2019-05-02T22:53:14.005Z,82.47
2019-05-02T22:55:47.538Z,82.21
2019-05-02T22:58:22.222Z,82.59
2019-05-02T23:00:55.713Z,84.92
2019-05-02T23:03:29.234Z,85.06
2019-05-02T23:06:02.722Z,85.30
2019-05-02T23:08:36.169Z,85.60
2019-05-02T23:11:09.669Z,87.49
2019-05-02T23:13:43.153Z,86.61
2019-05-02T23:16:16.632Z,86.70
2019-05-02T23:18:51.944Z,86.99
2019-05-02T23:21:25.271Z,86.58
2019-05-02T23:24:01.654Z,86.85
2019-05-02T23:26:42.841Z,87.42
2019-05-02T23:29:17.873Z,85.89
2019-05-02T23:31:51.823Z,86.22
2019-05-02T23:34:25.281Z,85.26
2019-05-02T23:36:58.709Z,86.30
2019-05-02T23:39:32.351Z,86.34
2019-05-02T23:42:05.841Z,86.06
2019-05-02T23:44:39.281Z,86.37
2019-05-02T23:47:12.716Z,85.58
2019-05-02T23:49:46.146Z,85.79
2019-05-02T23:52:19.574Z,86.54
2019-05-02T23:54:52.992Z,86.85
2019-05-02T23:57:26.405Z,85.38
2019-05-02T23:59:59.851Z,86.90
